createdAt,value
2019-02-21T00:02:21.431Z,64.40
2019-02-21T00:04:50.841Z,64.20
2019-02-21T00:07:20.610Z,64.40
2019-02-21T00:09:49.983Z,64.80
2019-02-21T00:12:19.352Z,64.50
2019-02-21T00:14:48.748Z,64.40
2019-02-21T00:17:18.112Z,64.90
2019-02-21T00:19:47.482Z,64.50
2019-02-21T00:22:16.881Z,64.30
2019-02-21T00:24:46.266Z,64.30
2019-02-21T00:27:15.629Z,64.50
2019-02-21T00:29:45.533Z,65.00
2019-02-21T00:32:14.914Z,64.20
2019-02-21T00:34:44.259Z,64.50
2019-02-21T00:37:13.667Z,64.40
2019-02-21T00:39:43.037Z,64.50
2019-02-21T00:42:12.418Z,64.50
2019-02-21T00:44:41.807Z,64.40
2019-02-21T00:47:11.207Z,64.40
2019-02-21T00:49:40.550Z,64.50
2019-02-21T00:52:10.163Z,64.70
2019-02-21T00:54:39.534Z,64.80
2019-02-21T00:57:08.908Z,64.60
2019-02-21T00:59:38.295Z,64.50
2019-02-21T01:02:07.678Z,64.40
2019-02-21T01:04:37.976Z,65.10
2019-02-21T01:07:07.365Z,64.50
2019-02-21T01:09:36.743Z,64.60
2019-02-21T01:12:06.155Z,64.50
2019-02-21T01:14:36.018Z,64.40
2019-02-21T01:17:05.388Z,64.40
2019-02-21T01:19:34.745Z,65.40
2019-02-21T01:32:00.499Z,63.60
2019-02-21T01:34:29.863Z,63.80
2019-02-21T01:36:59.287Z,64.20
2019-02-21T01:39:28.658Z,64.20
2019-02-21T01:41:58.032Z,64.20
2019-02-21T01:44:27.412Z,64.00
2019-02-21T01:46:56.772Z,63.90
2019-02-21T01:49:26.135Z,64.10
2019-02-21T01:51:55.515Z,64.20
2019-02-21T01:54:25.206Z,64.10
2019-02-21T01:56:54.580Z,63.90
2019-02-21T01:59:24.398Z,64.20
2019-02-21T02:01:54.032Z,64.10
2019-02-21T02:04:23.406Z,63.90
2019-02-21T02:06:54.062Z,63.80
2019-02-21T02:09:23.611Z,64.10
2019-02-21T02:11:52.979Z,63.70
2019-02-21T02:14:22.351Z,63.70
2019-02-21T02:16:51.726Z,63.70
2019-02-21T02:19:21.113Z,64.00
2019-02-21T02:21:51.025Z,63.70
2019-02-21T02:24:20.395Z,63.70
2019-02-21T02:26:49.764Z,63.40
2019-02-21T02:29:19.165Z,63.60
2019-02-21T02:31:48.870Z,63.70
2019-02-21T02:34:18.398Z,63.90
2019-02-21T02:36:47.784Z,63.80
2019-02-21T02:39:17.217Z,63.80
2019-02-21T02:41:46.928Z,63.80
2019-02-21T02:44:16.686Z,63.70
2019-02-21T02:46:46.065Z,63.60
2019-02-21T02:49:15.437Z,63.80
2019-02-21T02:51:44.813Z,63.70
2019-02-21T02:54:14.190Z,63.70
2019-02-21T02:56:43.551Z,63.60
2019-02-21T02:59:12.926Z,63.60
2019-02-21T03:01:42.298Z,63.60
2019-02-21T03:04:11.672Z,63.50
2019-02-21T03:06:41.510Z,63.60
2019-02-21T03:09:12.264Z,63.60
2019-02-21T03:11:41.627Z,63.60
2019-02-21T03:14:11.005Z,63.40
2019-02-21T03:16:40.714Z,63.00
2019-02-21T03:21:39.134Z,63.00
2019-02-21T03:24:08.513Z,63.00
2019-02-21T03:26:37.870Z,63.00
2019-02-21T03:29:07.575Z,63.30
2019-02-21T03:31:53.609Z,64.10
2019-02-21T03:34:08.041Z,63.50
2019-02-21T03:36:37.409Z,63.70
2019-02-21T03:39:08.689Z,63.40
2019-02-21T03:41:38.238Z,63.30
2019-02-21T03:44:07.616Z,63.90
2019-02-21T03:46:36.983Z,63.60
2019-02-21T03:49:06.370Z,63.60
2019-02-21T03:51:36.113Z,63.50
2019-02-21T03:54:05.461Z,63.40
2019-02-21T03:56:34.894Z,63.30
2019-02-21T03:59:04.448Z,63.20
2019-02-21T04:01:33.816Z,63.50
2019-02-21T04:04:03.175Z,63.60
2019-02-21T04:06:32.563Z,63.90
2019-02-21T04:09:01.921Z,63.80
2019-02-21T04:11:31.907Z,64.80
2019-02-21T04:16:30.720Z,63.50
2019-02-21T04:19:00.092Z,63.60
2019-02-21T04:21:29.812Z,63.90
2019-02-21T04:23:59.260Z,64.60
2019-02-21T04:26:28.638Z,63.80
2019-02-21T04:28:58.030Z,64.10
2019-02-21T04:31:27.398Z,64.40
2019-02-21T04:33:56.778Z,64.30
2019-02-21T04:36:26.382Z,64.40
2019-02-21T04:38:56.052Z,64.50
2019-02-21T04:41:25.423Z,64.70
2019-02-21T04:43:54.801Z,65.10
2019-02-21T04:46:24.175Z,64.60
2019-02-21T04:48:53.611Z,64.60
2019-02-21T04:51:23.010Z,64.60
2019-02-21T04:53:52.384Z,64.80
2019-02-21T04:56:21.763Z,65.30
2019-02-21T05:01:20.595Z,65.20
2019-02-21T05:03:49.985Z,65.00
2019-02-21T05:06:19.378Z,65.10
2019-02-21T05:08:48.750Z,65.40
2019-02-21T05:11:18.664Z,65.30
2019-02-21T05:13:48.312Z,65.60
2019-02-21T05:16:17.679Z,65.30
2019-02-21T05:18:47.050Z,65.70
2019-02-21T05:21:17.072Z,66.00
2019-02-21T05:23:46.439Z,66.40
2019-02-21T05:26:17.450Z,66.60
2019-02-21T05:28:46.828Z,66.60
2019-02-21T05:31:30.013Z,66.30
2019-02-21T05:34:01.035Z,66.90
2019-02-21T05:36:48.405Z,67.00
2019-02-21T05:39:22.638Z,67.30
2019-02-21T05:42:11.691Z,67.70
2019-02-21T05:44:59.630Z,68.00
2019-02-21T05:47:30.670Z,68.40
2019-02-21T05:50:07.628Z,68.70
2019-02-21T05:52:50.912Z,68.80
2019-02-21T05:55:28.255Z,68.90
2019-02-21T05:58:01.668Z,68.80
2019-02-21T06:00:41.699Z,68.90
2019-02-21T06:03:30.983Z,69.20
2019-02-21T06:06:08.070Z,69.10
2019-02-21T06:08:39.071Z,69.20
2019-02-21T06:11:10.558Z,68.90
2019-02-21T06:13:44.609Z,69.20
2019-02-21T06:16:14.636Z,69.20
2019-02-21T06:18:45.648Z,69.10
2019-02-21T06:21:16.689Z,69.40
2019-02-21T06:23:50.350Z,69.60
2019-02-21T06:26:27.132Z,69.30
2019-02-21T06:33:59.239Z,69.10
2019-02-21T06:36:28.599Z,69.90
2019-02-21T06:38:57.970Z,69.60
2019-02-21T06:41:29.836Z,70.00
2019-02-21T06:43:58.462Z,69.80
2019-02-21T06:46:27.851Z,69.80
2019-02-21T06:48:57.228Z,69.90
2019-02-21T06:51:26.611Z,69.80
2019-02-21T06:53:55.957Z,70.00
2019-02-21T06:56:25.796Z,69.80
2019-02-21T06:58:55.170Z,69.80
2019-02-21T07:01:29.133Z,69.80
2019-02-21T07:03:55.645Z,69.50
2019-02-21T07:06:31.993Z,69.80
2019-02-21T07:08:56.116Z,69.70
2019-02-21T07:11:25.535Z,70.00
2019-02-21T07:13:54.897Z,69.60
2019-02-21T07:16:24.283Z,69.20
2019-02-21T07:18:54.243Z,69.20
2019-02-21T07:21:23.593Z,69.50
2019-02-21T07:23:52.959Z,68.90
2019-02-21T07:26:22.335Z,69.20
2019-02-21T07:28:51.707Z,69.00
2019-02-21T07:31:28.820Z,68.80
2019-02-21T07:33:52.213Z,68.80
2019-02-21T07:36:21.596Z,68.50
2019-02-21T07:38:50.960Z,68.20
2019-02-21T07:41:20.635Z,67.50
2019-02-21T07:43:50.012Z,67.80
2019-02-21T07:46:19.364Z,67.50
2019-02-21T07:48:48.740Z,67.20
2019-02-21T07:51:18.490Z,66.90
2019-02-21T07:53:47.848Z,66.90
2019-02-21T07:56:17.239Z,66.30
2019-02-21T07:58:46.616Z,67.40
2019-02-21T08:01:17.430Z,66.30
2019-02-21T08:03:48.603Z,66.40
2019-02-21T08:06:19.968Z,66.40
2019-02-21T08:08:49.316Z,66.90
2019-02-21T08:11:18.699Z,66.60
2019-02-21T08:13:48.059Z,66.40
2019-02-21T08:16:17.441Z,66.50
2019-02-21T08:18:46.858Z,66.60
2019-02-21T08:21:16.348Z,66.60
2019-02-21T08:23:50.537Z,67.10
2019-02-21T08:26:19.888Z,67.20
2019-02-21T08:28:48.335Z,67.20
2019-02-21T08:31:17.695Z,67.20
2019-02-21T08:33:58.008Z,67.30
2019-02-21T08:36:19.843Z,67.40
2019-02-21T08:38:49.213Z,67.70
2019-02-21T08:41:19.059Z,68.10
2019-02-21T08:43:48.457Z,68.30
2019-02-21T08:46:18.365Z,68.60
2019-02-21T08:48:48.132Z,68.70
2019-02-21T08:51:18.371Z,68.70
2019-02-21T08:53:47.935Z,68.80
2019-02-21T08:56:17.632Z,69.00
2019-02-21T08:58:47.005Z,69.00
2019-02-21T09:01:16.384Z,69.30
2019-02-21T09:03:46.421Z,69.00
2019-02-21T09:06:15.805Z,69.00
2019-02-21T09:08:45.278Z,69.30
2019-02-21T09:11:14.675Z,69.20
2019-02-21T09:13:44.039Z,69.30
2019-02-21T09:16:13.395Z,69.40
2019-02-21T09:18:42.781Z,69.80
2019-02-21T09:21:12.148Z,69.80
2019-02-21T09:23:41.757Z,69.60
2019-02-21T09:26:11.686Z,69.30
2019-02-21T09:28:41.062Z,69.40
2019-02-21T09:31:10.423Z,69.50
2019-02-21T09:33:39.878Z,69.10
2019-02-21T09:36:09.253Z,69.00
2019-02-21T09:38:38.614Z,69.10
2019-02-21T09:41:08.088Z,68.90
2019-02-21T09:43:37.449Z,69.10
2019-02-21T09:46:06.889Z,69.50
2019-02-21T09:48:36.618Z,69.80
2019-02-21T09:51:05.991Z,69.80
2019-02-21T09:53:35.413Z,69.80
2019-02-21T09:56:04.787Z,70.30
2019-02-21T09:58:34.155Z,70.20
2019-02-21T10:01:03.526Z,69.80
2019-02-21T10:03:32.916Z,70.20
2019-02-21T10:06:02.290Z,68.70
2019-02-21T10:11:01.045Z,68.40
2019-02-21T10:13:30.448Z,69.10
2019-02-21T10:15:59.822Z,68.60
2019-02-21T10:18:29.212Z,68.60
2019-02-21T10:20:58.578Z,68.60
2019-02-21T10:23:27.941Z,68.30
2019-02-21T10:25:57.569Z,68.30
2019-02-21T10:28:26.939Z,68.00
2019-02-21T10:30:56.315Z,68.20
2019-02-21T10:33:26.088Z,67.90
2019-02-21T10:35:55.460Z,68.40
2019-02-21T10:38:24.836Z,68.00
2019-02-21T10:40:54.213Z,68.30
2019-02-21T10:43:23.861Z,67.30
2019-02-21T10:45:53.224Z,67.70
2019-02-21T10:48:22.593Z,68.20
2019-02-21T10:50:51.974Z,68.10
2019-02-21T10:53:21.352Z,68.10
2019-02-21T10:55:51.039Z,67.60
2019-02-21T10:58:20.409Z,67.90
2019-02-21T11:00:49.779Z,67.60
2019-02-21T11:03:19.151Z,67.00
2019-02-21T11:05:48.546Z,67.00
2019-02-21T11:08:17.925Z,67.30
2019-02-21T11:10:47.308Z,67.70
2019-02-21T11:13:16.680Z,67.40
2019-02-21T11:15:46.063Z,67.70
2019-02-21T11:20:44.795Z,67.00
2019-02-21T11:23:14.160Z,67.30
2019-02-21T11:25:43.544Z,67.20
2019-02-21T11:28:13.490Z,67.10
2019-02-21T11:30:42.823Z,67.50
2019-02-21T11:33:12.201Z,66.00
2019-02-21T11:35:41.569Z,65.90
2019-02-21T11:38:11.190Z,66.20
2019-02-21T11:40:41.101Z,66.40
2019-02-21T11:43:10.474Z,66.20
2019-02-21T11:45:39.835Z,65.50
2019-02-21T11:48:09.592Z,65.00
2019-02-21T11:50:38.953Z,64.10
2019-02-21T11:53:08.310Z,64.40
2019-02-21T11:55:37.698Z,65.30
2019-02-21T11:58:07.170Z,64.50
2019-02-21T12:00:38.160Z,64.00
2019-02-21T12:03:08.100Z,63.20
2019-02-21T12:05:37.485Z,62.90
2019-02-21T12:08:06.842Z,62.90
2019-02-21T12:13:05.263Z,62.60
2019-02-21T12:15:34.952Z,62.50
2019-02-21T12:18:04.424Z,62.30
2019-02-21T12:23:02.836Z,63.20
2019-02-21T12:25:32.623Z,62.50
2019-02-21T12:28:01.977Z,61.70
2019-02-21T12:30:33.515Z,62.70
2019-02-21T12:35:32.105Z,62.40
2019-02-21T12:40:30.557Z,62.50
2019-02-21T12:42:59.924Z,62.30
2019-02-21T12:45:30.135Z,62.40
2019-02-21T12:48:00.221Z,61.60
2019-02-21T12:50:29.611Z,61.00
2019-02-21T12:52:58.986Z,60.70
2019-02-21T12:55:31.682Z,60.30
2019-02-21T13:00:28.520Z,60.00
2019-02-21T13:05:26.962Z,60.10
2019-02-21T13:07:56.309Z,60.10
2019-02-21T13:10:26.656Z,60.00
2019-02-21T13:12:56.053Z,60.10
2019-02-21T13:15:25.408Z,59.60
2019-02-21T13:17:54.799Z,59.10
2019-02-21T13:20:24.171Z,58.50
2019-02-21T13:22:53.851Z,58.20
2019-02-21T13:25:23.248Z,58.30
2019-02-21T13:27:52.610Z,58.80
2019-02-21T13:30:21.999Z,58.60
2019-02-21T13:32:52.192Z,58.50
2019-02-21T13:35:21.574Z,58.40
2019-02-21T13:37:50.944Z,58.10
2019-02-21T13:45:19.902Z,57.80
2019-02-21T13:47:49.302Z,57.70
2019-02-21T13:50:20.286Z,58.20
2019-02-21T13:52:49.651Z,57.90
2019-02-21T13:55:19.509Z,58.10
2019-02-21T13:57:48.877Z,57.90
2019-02-21T14:00:23.652Z,57.90
2019-02-21T14:02:53.039Z,58.10
2019-02-21T14:07:54.622Z,57.60
2019-02-21T14:10:24.420Z,57.40
2019-02-21T14:12:53.793Z,57.70
2019-02-21T14:15:29.261Z,57.90
2019-02-21T14:17:58.667Z,58.30
2019-02-21T14:20:28.008Z,58.60
2019-02-21T14:22:57.406Z,59.00
2019-02-21T14:25:28.390Z,59.00
2019-02-21T14:27:58.160Z,59.70
2019-02-21T14:30:27.524Z,59.40
2019-02-21T14:32:56.896Z,59.80
2019-02-21T14:35:26.415Z,59.80
2019-02-21T14:37:56.105Z,60.20
2019-02-21T14:40:25.500Z,60.80
2019-02-21T14:42:54.853Z,60.90
2019-02-21T14:50:25.591Z,61.80
2019-02-21T14:52:55.034Z,62.30
2019-02-21T15:00:24.652Z,63.40
2019-02-21T15:02:54.037Z,63.90
2019-02-21T15:07:52.465Z,63.80
2019-02-21T15:10:22.409Z,64.20
2019-02-21T15:12:51.789Z,64.70
2019-02-21T15:15:27.800Z,64.00
2019-02-21T15:18:06.868Z,64.70
2019-02-21T15:20:36.143Z,64.30
2019-02-21T15:22:59.378Z,64.90
2019-02-21T15:25:29.682Z,64.40
2019-02-21T15:27:59.097Z,64.80
2019-02-21T15:30:28.471Z,64.70
2019-02-21T15:32:57.872Z,64.70
2019-02-21T15:35:27.250Z,64.60
2019-02-21T15:37:57.168Z,65.10
2019-02-21T15:40:26.551Z,65.30
2019-02-21T15:45:29.755Z,64.70
2019-02-21T15:47:59.520Z,65.20
2019-02-21T15:50:28.920Z,64.90
2019-02-21T15:52:58.673Z,65.40
2019-02-21T15:55:28.137Z,64.70
2019-02-21T15:58:04.051Z,64.70
2019-02-21T16:00:28.619Z,64.60
2019-02-21T16:12:58.564Z,64.40
2019-02-21T16:15:28.276Z,64.80
2019-02-21T16:17:57.673Z,65.30
2019-02-21T16:20:27.050Z,65.10
2019-02-21T16:22:56.406Z,65.50
2019-02-21T16:25:32.828Z,65.30
2019-02-21T16:28:02.177Z,65.70
2019-02-21T16:30:31.600Z,65.70
2019-02-21T16:33:00.984Z,65.30
2019-02-21T16:35:30.354Z,65.90
2019-02-21T16:37:59.710Z,65.70
2019-02-21T16:40:29.674Z,65.60
2019-02-21T16:42:59.046Z,65.70
2019-02-21T16:47:59.236Z,65.30
2019-02-21T16:50:30.163Z,65.90
2019-02-21T16:52:59.758Z,65.60
2019-02-21T16:55:29.150Z,66.10
2019-02-21T16:57:58.525Z,66.00
2019-02-21T17:00:42.249Z,66.00
2019-02-21T17:02:59.059Z,65.80
2019-02-21T17:05:28.491Z,66.00
2019-02-21T17:07:57.851Z,66.00
2019-02-21T17:10:27.815Z,66.00
2019-02-21T17:12:57.192Z,66.10
2019-02-21T17:15:26.574Z,65.90
2019-02-21T17:17:55.942Z,66.50
2019-02-21T17:20:26.153Z,66.00
2019-02-21T17:22:55.524Z,66.40
2019-02-21T17:27:53.970Z,65.90
2019-02-21T17:30:23.707Z,65.90
2019-02-21T17:32:53.392Z,66.10
2019-02-21T17:35:22.764Z,66.00
2019-02-21T17:37:52.129Z,66.20
2019-02-21T17:40:26.183Z,66.50
2019-02-21T17:42:55.673Z,66.00
2019-02-21T17:45:25.057Z,66.50
2019-02-21T17:47:54.811Z,66.30
2019-02-21T17:50:24.195Z,65.90
2019-02-21T17:52:53.574Z,66.20
2019-02-21T17:55:22.956Z,65.90
2019-02-21T17:57:52.321Z,66.10
2019-02-21T18:00:30.824Z,66.30
2019-02-21T18:03:00.198Z,66.50
2019-02-21T18:05:29.573Z,67.30
2019-02-21T18:07:59.353Z,67.70
2019-02-21T18:10:28.724Z,67.80
2019-02-21T18:12:58.105Z,68.60
2019-02-21T18:15:27.498Z,68.00
2019-02-21T18:17:56.869Z,69.70
2019-02-21T18:20:26.244Z,69.20
2019-02-21T18:22:55.632Z,70.50
2019-02-21T18:25:29.740Z,70.90
2019-02-21T18:27:59.126Z,71.50
2019-02-21T18:30:28.589Z,71.50
2019-02-21T18:32:57.954Z,72.10
2019-02-21T18:35:27.325Z,72.00
2019-02-21T18:37:56.994Z,72.70
2019-02-21T18:40:28.318Z,73.10
2019-02-21T18:42:57.694Z,73.80
2019-02-21T18:45:27.300Z,74.20
2019-02-21T18:47:56.661Z,74.40
2019-02-21T18:50:37.456Z,74.10
2019-02-21T18:52:57.147Z,75.00
2019-02-21T18:55:26.517Z,75.50
2019-02-21T18:57:55.878Z,75.30
2019-02-21T19:00:26.568Z,76.10
2019-02-21T19:02:55.937Z,76.30
2019-02-21T19:05:35.236Z,75.90
2019-02-21T19:08:04.731Z,76.90
2019-02-21T19:10:27.739Z,76.80
2019-02-21T19:12:57.099Z,76.80
2019-02-21T19:20:25.536Z,77.60
2019-02-21T19:25:23.961Z,77.50
2019-02-21T19:27:53.358Z,77.80
2019-02-21T19:30:43.043Z,78.40
2019-02-21T19:33:12.484Z,78.50
2019-02-21T19:35:41.901Z,78.60
2019-02-21T19:38:11.289Z,78.70
2019-02-21T19:40:40.668Z,78.70
2019-02-21T19:43:10.193Z,78.70
2019-02-21T19:45:39.564Z,79.00
2019-02-21T19:48:09.149Z,79.50
2019-02-21T19:50:38.529Z,79.50
2019-02-21T19:53:07.999Z,78.70
2019-02-21T19:55:37.365Z,79.60
2019-02-21T19:58:06.805Z,79.50
2019-02-21T20:00:37.187Z,80.20
2019-02-21T20:03:06.549Z,80.10
2019-02-21T20:05:35.927Z,79.50
2019-02-21T20:08:08.764Z,79.80
2019-02-21T20:10:36.394Z,80.10
2019-02-21T20:13:07.847Z,80.30
2019-02-21T20:15:37.512Z,80.40
2019-02-21T20:18:06.894Z,80.20
2019-02-21T20:20:36.332Z,80.90
2019-02-21T20:23:05.716Z,80.40
2019-02-21T20:25:35.081Z,80.40
2019-02-21T20:28:04.517Z,81.00
2019-02-21T20:30:33.916Z,81.10
2019-02-21T20:33:03.284Z,81.30
2019-02-21T20:35:32.655Z,80.80
2019-02-21T20:38:02.634Z,81.10
2019-02-21T20:40:32.480Z,81.10
2019-02-21T20:43:01.854Z,81.40
2019-02-21T20:45:31.265Z,81.20
2019-02-21T20:48:00.615Z,81.70
2019-02-21T20:50:30.386Z,81.70
2019-02-21T20:52:59.784Z,80.90
2019-02-21T20:55:29.143Z,80.90
2019-02-21T20:57:58.514Z,81.60
2019-02-21T21:00:28.194Z,81.70
2019-02-21T21:02:57.560Z,81.70
2019-02-21T21:05:26.948Z,81.70
2019-02-21T21:07:56.301Z,81.80
2019-02-21T21:10:25.677Z,80.80
2019-02-21T21:12:55.055Z,81.60
2019-02-21T21:15:24.431Z,81.40
2019-02-21T21:17:53.804Z,81.90
2019-02-21T21:20:23.173Z,81.30
2019-02-21T21:22:53.177Z,82.00
2019-02-21T21:25:22.516Z,81.60
2019-02-21T21:27:51.889Z,82.10
2019-02-21T21:30:21.267Z,81.90
2019-02-21T21:32:50.669Z,81.30
2019-02-21T21:35:20.032Z,81.90
2019-02-21T21:40:20.233Z,81.80
2019-02-21T21:42:49.598Z,82.40
2019-02-21T21:45:19.950Z,81.80
2019-02-21T21:47:49.327Z,82.30
2019-02-21T21:50:20.115Z,82.10
2019-02-21T21:52:49.696Z,82.60
2019-02-21T21:55:19.101Z,82.70
2019-02-21T21:57:48.444Z,82.10
2019-02-21T22:00:23.790Z,82.20
2019-02-21T22:02:53.240Z,82.70
2019-02-21T22:05:22.612Z,82.80
2019-02-21T22:07:51.992Z,82.60
2019-02-21T22:10:21.351Z,82.70
2019-02-21T22:12:50.712Z,82.30
2019-02-21T22:15:21.999Z,82.40
2019-02-21T22:17:51.361Z,83.00
2019-02-21T22:20:20.736Z,83.30
2019-02-21T22:22:50.369Z,82.70
2019-02-21T22:27:48.833Z,83.50
2019-02-21T22:30:20.607Z,83.10
2019-02-21T22:32:49.975Z,83.10
2019-02-21T22:37:48.409Z,83.70
2019-02-21T22:40:19.849Z,83.60
2019-02-21T22:45:18.839Z,83.50
2019-02-21T22:47:48.208Z,84.00
2019-02-21T22:50:21.947Z,84.50
2019-02-21T22:52:51.315Z,84.50
2019-02-21T22:55:21.031Z,84.50
2019-02-21T22:57:50.406Z,84.80
2019-02-21T23:00:59.098Z,83.80
2019-02-21T23:03:35.702Z,84.40
2019-02-21T23:06:27.837Z,84.20
2019-02-21T23:08:57.210Z,84.60
2019-02-21T23:11:26.949Z,84.90
2019-02-21T23:13:56.491Z,84.80
2019-02-21T23:16:25.861Z,85.30
2019-02-21T23:18:55.237Z,85.10
2019-02-21T23:21:24.660Z,84.60
2019-02-21T23:23:54.043Z,85.00
2019-02-21T23:26:23.409Z,84.90
2019-02-21T23:28:52.796Z,84.90
2019-02-21T23:31:22.172Z,84.00
2019-02-21T23:33:53.181Z,84.50
2019-02-21T23:36:22.577Z,84.60
2019-02-21T23:38:51.938Z,84.60
2019-02-21T23:41:21.316Z,84.90
2019-02-21T23:43:51.155Z,84.10
2019-02-21T23:46:20.517Z,84.50
2019-02-21T23:48:49.875Z,84.10
2019-02-21T23:51:19.266Z,83.60
2019-02-21T23:53:48.651Z,83.50
2019-02-21T23:58:47.580Z,83.40
